Brooklyn, Kentucky
Current Conditions -  °F | °C
As of 12:53 PM on Saturday 25 Oct 2014 (Local Time) from KBWG Reporting Station
Clear Clear  
Wind Chill: 73°   Ceiling: Unl
Heat Index: 73°   Visibility: 10mi
Dew Point: 58°   Wind: 5mph
Humidity: 59%   Direction: 230°SW
Pressure: 30.01"   Gusts: NA
Location:  37.29°N, 86.58°W
Report Text: KBWG 251753Z AUTO 23004KT 10SM CLR 23/14 A3001 RMK AO2 SLP160 T02280144 10228 20067 58018
Loading
Personal Weather Stations






























Interactive Weather Map New forecast layout! Learn more

10-Day Weather Forecast

Advertisements
Track Severe Weather on mobile